Time,TemperatureF,DewpointF,PressureIn,WindDirection,WindDirectionDegrees,WindSpeedMPH,WindSpeedGustMPH,Humidity,HourlyPrecipIn,Conditions,Clouds,dailyrainin,SoftwareType,DateUTC
2013-01-10 00:00:00,41.5,29.4,30.00,WSW,244,2.0,8.0,62,0.00,RA,,0.00,WeatherDisplay:10.37,2013-01-10 05:00:00,
2013-01-10 00:05:00,41.5,29.4,30.00,West,261,1.0,4.0,62,0.00,RA,,0.00,WeatherDisplay:10.37,2013-01-10 05:05:00,
2013-01-10 00:10:00,41.5,29.4,30.00,West,277,0.0,9.0,62,0.00,BKN,,0.00,WeatherDisplay:10.37,2013-01-10 05:10:00,
2013-01-10 00:15:00,41.4,28.9,30.00,West,263,2.0,10.0,61,0.00,BKN,,0.00,WeatherDisplay:10.37,2013-01-10 05:15:00,
2013-01-10 00:20:00,41.5,29.4,30.00,West,262,1.0,6.0,62,0.00,BKN,,0.00,WeatherDisplay:10.37,2013-01-10 05:20:00,
2013-01-10 00:25:00,41.4,29.4,30.00,WNW,294,1.0,7.0,62,0.00,BKN,,0.00,WeatherDisplay:10.37,2013-01-10 05:25:00,
2013-01-10 00:30:00,41.4,28.9,29.99,West,266,3.0,8.0,61,0.00,BKN,,0.00,WeatherDisplay:10.37,2013-01-10 05:30:00,
2013-01-10 00:35:00,41.4,28.9,30.00,WSW,241,0.0,3.0,61,0.00,BKN,,0.00,WeatherDisplay:10.37,2013-01-10 05:35:00,
2013-01-10 00:40:00,41.1,29.1,30.00,SW,220,1.0,4.0,62,0.00,BKN,,0.00,WeatherDisplay:10.37,2013-01-10 05:40:00,
2013-01-10 00:45:00,40.8,29.2,30.00,WNW,296,0.0,0.0,63,0.00,BKN,,0.00,WeatherDisplay:10.37,2013-01-10 05:45:00,
2013-01-10 00:50:00,40.5,28.9,30.00,WNW,291,0.0,3.0,63,0.00,BKN,,0.00,WeatherDisplay:10.37,2013-01-10 05:50:00,
2013-01-10 00:55:00,40.2,29.0,30.00,SW,226,0.0,5.0,64,0.00,BKN,,0.00,WeatherDisplay:10.37,2013-01-10 05:55:00,
2013-01-10 01:00:00,40.1,28.5,30.01,WNW,286,3.0,9.0,63,0.00,BKN,,0.00,WeatherDisplay:10.37,2013-01-10 06:00:00,
2013-01-10 01:10:00,40.9,29.3,30.01,SW,222,1.0,6.0,63,0.00,BKN,,0.00,WeatherDisplay:10.37,2013-01-10 06:10:00,
2013-01-10 01:15:00,41.0,29.0,30.01,SW,229,0.0,6.0,62,0.00,BKN,,0.00,WeatherDisplay:10.37,2013-01-10 06:15:00,
2013-01-10 01:20:00,41.0,29.0,30.01,West,272,3.0,7.0,62,0.00,CLR,,0.00,WeatherDisplay:10.37,2013-01-10 06:20:00,
2013-01-10 01:25:00,41.0,29.0,30.02,West,270,1.0,6.0,62,0.00,CLR,,0.00,WeatherDisplay:10.37,2013-01-10 06:25:00,
2013-01-10 01:30:00,41.0,29.3,30.01,WSW,243,0.0,3.0,63,0.00,CLR,,0.00,WeatherDisplay:10.37,2013-01-10 06:30:00,
2013-01-10 01:35:00,40.7,29.1,30.02,West,271,0.0,5.0,63,0.00,CLR,,0.00,WeatherDisplay:10.37,2013-01-10 06:35:00,
2013-01-10 01:40:00,40.6,29.4,30.02,West,272,2.0,12.0,64,0.00,CLR,,0.00,WeatherDisplay:10.37,2013-01-10 06:40:00,
2013-01-10 01:45:00,40.8,29.5,30.02,West,262,6.0,17.0,64,0.00,CLR,,0.00,WeatherDisplay:10.37,2013-01-10 06:45:00,
2013-01-10 01:50:00,41.2,30.0,30.02,West,263,6.0,10.0,64,0.00,CLR,,0.00,WeatherDisplay:10.37,2013-01-10 06:50:00,
2013-01-10 01:55:00,41.5,29.9,30.02,West,270,8.0,15.0,63,0.00,CLR,,0.00,WeatherDisplay:10.37,2013-01-10 06:55:00,
2013-01-10 02:00:00,41.8,30.5,30.03,West,273,3.0,13.0,64,0.00,CLR,,0.00,WeatherDisplay:10.37,2013-01-10 07:00:00,
2013-01-10 02:05:00,41.7,30.0,30.04,West,281,3.0,12.0,63,0.00,CLR,,0.00,WeatherDisplay:10.37,2013-01-10 07:05:00,
2013-01-10 02:10:00,41.8,30.1,30.05,WNW,303,5.0,9.0,63,0.00,CLR,,0.00,WeatherDisplay:10.37,2013-01-10 07:10:00,
2013-01-10 02:15:00,41.8,30.1,30.05,WNW,300,3.0,8.0,63,0.00,CLR,,0.00,WeatherDisplay:10.37,2013-01-10 07:15:00,
2013-01-10 02:20:00,41.6,29.9,30.06,WNW,296,3.0,9.0,63,0.00,SCT,,0.00,WeatherDisplay:10.37,2013-01-10 07:20:00,
2013-01-10 02:25:00,41.4,30.1,30.06,WNW,292,1.0,9.0,64,0.00,SCT,,0.00,WeatherDisplay:10.37,2013-01-10 07:25:00,
2013-01-10 02:30:00,41.0,29.4,30.06,WNW,297,1.0,5.0,63,0.00,SCT,,0.00,WeatherDisplay:10.37,2013-01-10 07:30:00,
2013-01-10 02:35:00,40.9,28.9,30.06,WNW,292,2.0,6.0,62,0.00,SCT,,0.00,WeatherDisplay:10.37,2013-01-10 07:35:00,
2013-01-10 02:40:00,40.8,28.8,30.07,NW,304,6.0,9.0,62,0.00,SCT,,0.00,WeatherDisplay:10.37,2013-01-10 07:40:00,
2013-01-10 02:45:00,40.8,28.8,30.07,WNW,302,2.0,4.0,62,0.00,SCT,,0.00,WeatherDisplay:10.37,2013-01-10 07:45:00,
2013-01-10 02:50:00,40.7,27.9,30.08,NW,322,3.0,12.0,60,0.00,SCT,,0.00,WeatherDisplay:10.37,2013-01-10 07:50:00,
2013-01-10 02:55:00,40.7,27.5,30.08,WNW,300,5.0,7.0,59,0.00,SCT,,0.00,WeatherDisplay:10.37,2013-01-10 07:55:00,
2013-01-10 03:00:00,40.8,27.6,30.09,NW,318,2.0,9.0,59,0.00,SCT,,0.00,WeatherDisplay:10.37,2013-01-10 08:00:00,
2013-01-10 03:05:00,40.8,27.6,30.09,WNW,295,1.0,8.0,59,0.00,SCT,,0.00,WeatherDisplay:10.37,2013-01-10 08:05:00,
2013-01-10 03:10:00,40.7,27.1,30.09,WNW,294,5.0,12.0,58,0.00,SCT,,0.00,WeatherDisplay:10.37,2013-01-10 08:10:00,
2013-01-10 03:15:00,40.7,27.5,30.09,WNW,299,3.0,7.0,59,0.00,SCT,,0.00,WeatherDisplay:10.37,2013-01-10 08:15:00,
2013-01-10 03:20:00,40.6,27.4,30.09,West,281,6.0,12.0,59,0.00,CLR,,0.00,WeatherDisplay:10.37,2013-01-10 08:20:00,
2013-01-10 03:25:00,40.5,27.7,30.10,WNW,295,2.0,7.0,60,0.00,CLR,,0.00,WeatherDisplay:10.37,2013-01-10 08:25:00,
2013-01-10 03:30:00,40.4,27.2,30.10,NW,304,5.0,9.0,59,0.00,CLR,,0.00,WeatherDisplay:10.37,2013-01-10 08:30:00,
2013-01-10 03:35:00,40.3,27.5,30.10,WNW,303,1.0,5.0,60,0.00,CLR,,0.00,WeatherDisplay:10.37,2013-01-10 08:35:00,
2013-01-10 03:40:00,40.2,27.4,30.10,WNW,285,3.0,10.0,60,0.00,CLR,,0.00,WeatherDisplay:10.37,2013-01-10 08:40:00,
2013-01-10 03:45:00,40.1,27.7,30.11,WNW,293,5.0,10.0,61,0.00,CLR,,0.00,WeatherDisplay:10.37,2013-01-10 08:45:00,
2013-01-10 03:50:00,40.2,27.4,30.11,WNW,294,2.0,13.0,60,0.00,CLR,,0.00,WeatherDisplay:10.37,2013-01-10 08:50:00,
2013-01-10 03:55:00,40.2,27.4,30.12,WNW,297,6.0,12.0,60,0.00,CLR,,0.00,WeatherDisplay:10.37,2013-01-10 08:55:00,
2013-01-10 04:00:00,40.3,27.9,30.12,WNW,291,5.0,12.0,61,0.00,CLR,,0.00,WeatherDisplay:10.37,2013-01-10 09:00:00,
2013-01-10 04:05:00,40.4,28.0,30.13,WNW,295,2.0,9.0,61,0.00,CLR,,0.00,WeatherDisplay:10.37,2013-01-10 09:05:00,
2013-01-10 04:10:00,40.2,27.8,30.13,WNW,282,6.0,15.0,61,0.00,CLR,,0.00,WeatherDisplay:10.37,2013-01-10 09:10:00,
2013-01-10 04:15:00,40.2,27.8,30.14,West,273,3.0,12.0,61,0.00,CLR,,0.00,WeatherDisplay:10.37,2013-01-10 09:15:00,
2013-01-10 04:20:00,40.1,27.7,30.14,WNW,286,5.0,16.0,61,0.00,CLR,,0.00,WeatherDisplay:10.37,2013-01-10 09:20:00,
2013-01-10 04:25:00,40.1,27.7,30.15,West,274,5.0,14.0,61,0.00,CLR,,0.00,WeatherDisplay:10.37,2013-01-10 09:25:00,
2013-01-10 04:30:00,40.1,27.7,30.16,WNW,287,5.0,12.0,61,0.00,CLR,,0.00,WeatherDisplay:10.37,2013-01-10 09:30:00,
2013-01-10 04:35:00,40.1,27.8,30.16,WNW,298,5.0,12.0,61,0.00,CLR,,0.00,WeatherDisplay:10.37,2013-01-10 09:35:00,
2013-01-10 04:40:00,40.2,27.8,30.16,NW,304,6.0,12.0,61,0.00,CLR,,0.00,WeatherDisplay:10.37,2013-01-10 09:40:00,
2013-01-10 04:45:00,40.1,27.7,30.16,NW,306,5.0,8.0,61,0.00,CLR,,0.00,WeatherDisplay:10.37,2013-01-10 09:45:00,
2013-01-10 04:50:00,40.0,28.0,30.17,WNW,292,5.0,13.0,62,0.00,CLR,,0.00,WeatherDisplay:10.37,2013-01-10 09:50:00,
2013-01-10 04:55:00,39.9,27.9,30.17,WNW,295,5.0,10.0,62,0.00,CLR,,0.00,WeatherDisplay:10.37,2013-01-10 09:55:00,
2013-01-10 05:00:00,39.9,27.9,30.17,WNW,296,3.0,9.0,62,0.00,CLR,,0.00,WeatherDisplay:10.37,2013-01-10 10:00:00,
2013-01-10 05:05:00,39.8,27.8,30.17,WNW,300,5.0,12.0,62,0.00,CLR,,0.00,WeatherDisplay:10.37,2013-01-10 10:05:00,
2013-01-10 05:10:00,39.6,28.1,30.17,NW,309,0.0,7.0,63,0.00,CLR,,0.00,WeatherDisplay:10.37,2013-01-10 10:10:00,
2013-01-10 05:15:00,39.4,27.8,30.17,NW,313,2.0,7.0,63,0.00,CLR,,0.00,WeatherDisplay:10.37,2013-01-10 10:15:00,
2013-01-10 05:20:00,39.2,27.7,30.18,NW,304,5.0,10.0,63,0.00,CLR,,0.00,WeatherDisplay:10.37,2013-01-10 10:20:00,
2013-01-10 05:25:00,39.1,27.6,30.18,WNW,295,3.0,7.0,63,0.00,CLR,,0.00,WeatherDisplay:10.37,2013-01-10 10:25:00,
2013-01-10 05:30:00,39.0,27.5,30.18,WNW,283,2.0,8.0,63,0.00,CLR,,0.00,WeatherDisplay:10.37,2013-01-10 10:30:00,
2013-01-10 05:35:00,38.9,27.4,30.18,WNW,288,1.0,10.0,63,0.00,CLR,,0.00,WeatherDisplay:10.37,2013-01-10 10:35:00,
2013-01-10 05:40:00,38.8,27.3,30.18,WNW,298,1.0,7.0,63,0.00,CLR,,0.00,WeatherDisplay:10.37,2013-01-10 10:40:00,
2013-01-10 05:45:00,38.7,27.2,30.18,WNW,295,6.0,10.0,63,0.00,CLR,,0.00,WeatherDisplay:10.37,2013-01-10 10:45:00,
2013-01-10 05:50:00,38.7,26.8,30.19,WNW,299,3.0,9.0,62,0.00,CLR,,0.00,WeatherDisplay:10.37,2013-01-10 10:50:00,
2013-01-10 05:55:00,38.7,26.8,30.20,NW,309,5.0,12.0,62,0.00,CLR,,0.00,WeatherDisplay:10.37,2013-01-10 10:55:00,
2013-01-10 06:00:00,38.7,26.8,30.19,NW,304,3.0,9.0,62,0.00,CLR,,0.00,WeatherDisplay:10.37,2013-01-10 11:00:00,
2013-01-10 06:05:00,38.6,26.7,30.20,NW,306,2.0,8.0,62,0.00,CLR,,0.00,WeatherDisplay:10.37,2013-01-10 11:05:00,
2013-01-10 06:10:00,38.6,26.7,30.19,WNW,302,1.0,9.0,62,0.00,CLR,,0.00,WeatherDisplay:10.37,2013-01-10 11:10:00,
2013-01-10 06:15:00,38.4,26.5,30.19,NW,308,2.0,8.0,62,0.00,CLR,,0.00,WeatherDisplay:10.37,2013-01-10 11:15:00,
2013-01-10 06:20:00,38.3,26.4,30.20,NW,311,5.0,10.0,62,0.00,CLR,,0.00,WeatherDisplay:10.37,2013-01-10 11:20:00,
2013-01-10 06:25:00,38.3,26.8,30.20,West,279,2.0,7.0,63,0.00,CLR,,0.00,WeatherDisplay:10.37,2013-01-10 11:25:00,
2013-01-10 06:30:00,38.2,26.7,30.21,West,277,2.0,10.0,63,0.00,CLR,,0.00,WeatherDisplay:10.37,2013-01-10 11:30:00,
2013-01-10 06:35:00,38.2,26.3,30.22,WNW,288,2.0,9.0,62,0.00,CLR,,0.00,WeatherDisplay:10.37,2013-01-10 11:35:00,
2013-01-10 06:40:00,38.1,26.2,30.22,NW,323,3.0,9.0,62,0.00,CLR,,0.00,WeatherDisplay:10.37,2013-01-10 11:40:00,
2013-01-10 06:45:00,38.0,26.1,30.22,NW,317,2.0,6.0,62,0.00,CLR,,0.00,WeatherDisplay:10.37,2013-01-10 11:45:00,
2013-01-10 06:50:00,37.9,26.0,30.22,WNW,294,2.0,7.0,62,0.00,CLR,,0.00,WeatherDisplay:10.37,2013-01-10 11:50:00,
2013-01-10 06:55:00,37.9,25.7,30.22,WNW,288,1.0,10.0,61,0.00,CLR,,0.00,WeatherDisplay:10.37,2013-01-10 11:55:00,
2013-01-10 07:00:00,38.0,25.7,30.23,WNW,285,3.0,10.0,61,0.00,CLR,,0.00,WeatherDisplay:10.37,2013-01-10 12:00:00,
2013-01-10 07:05:00,37.9,25.3,30.23,West,281,2.0,6.0,60,0.00,CLR,,0.00,WeatherDisplay:10.37,2013-01-10 12:05:00,
2013-01-10 07:10:00,37.9,25.2,30.23,WNW,289,2.0,8.0,60,0.00,CLR,,0.00,WeatherDisplay:10.37,2013-01-10 12:10:00,
2013-01-10 07:15:00,37.9,25.2,30.24,WNW,289,1.0,7.0,60,0.00,CLR,,0.00,WeatherDisplay:10.37,2013-01-10 12:15:00,
2013-01-10 07:20:00,37.8,25.5,30.24,WNW,298,0.0,4.0,61,0.00,CLR,,0.00,WeatherDisplay:10.37,2013-01-10 12:20:00,
2013-01-10 07:25:00,37.5,25.3,30.24,NW,312,0.0,5.0,61,0.00,CLR,,0.00,WeatherDisplay:10.37,2013-01-10 12:25:00,
2013-01-10 07:30:00,37.3,25.1,30.25,WNW,297,1.0,5.0,61,0.00,CLR,,0.00,WeatherDisplay:10.37,2013-01-10 12:30:00,
2013-01-10 07:35:00,37.2,24.6,30.25,WNW,289,2.0,7.0,60,0.00,CLR,,0.00,WeatherDisplay:10.37,2013-01-10 12:35:00,
2013-01-10 07:40:00,37.1,24.9,30.25,WNW,288,2.0,7.0,61,0.00,CLR,,0.00,WeatherDisplay:10.37,2013-01-10 12:40:00,
2013-01-10 07:45:00,37.0,24.8,30.25,WNW,291,2.0,6.0,61,0.00,CLR,,0.00,WeatherDisplay:10.37,2013-01-10 12:45:00,
2013-01-10 07:50:00,37.0,24.8,30.26,WNW,294,2.0,7.0,61,0.00,CLR,,0.00,WeatherDisplay:10.37,2013-01-10 12:50:00,
2013-01-10 07:55:00,37.0,24.8,30.26,WNW,293,5.0,6.0,61,0.00,CLR,,0.00,WeatherDisplay:10.37,2013-01-10 12:55:00,
2013-01-10 08:00:00,37.1,24.5,30.26,WNW,301,5.0,8.0,60,0.00,CLR,,0.00,WeatherDisplay:10.37,2013-01-10 13:00:00,
2013-01-10 08:05:00,37.2,24.2,30.26,NW,308,5.0,9.0,59,0.00,CLR,,0.00,WeatherDisplay:10.37,2013-01-10 13:05:00,
2013-01-10 08:10:00,37.4,24.4,30.26,NW,304,7.0,13.0,59,0.00,CLR,,0.00,WeatherDisplay:10.37,2013-01-10 13:10:00,
2013-01-10 08:15:00,37.7,24.2,30.27,WNW,295,5.0,14.0,58,0.00,CLR,,0.00,WeatherDisplay:10.37,2013-01-10 13:15:00,
2013-01-10 08:20:00,37.8,24.4,30.27,NW,310,1.0,5.0,58,0.00,CLR,,0.00,WeatherDisplay:10.37,2013-01-10 13:20:00,
2013-01-10 08:25:00,37.9,24.4,30.27,NW,309,2.0,7.0,58,0.00,CLR,,0.00,WeatherDisplay:10.37,2013-01-10 13:25:00,
2013-01-10 08:30:00,38.1,24.2,30.27,WNW,303,6.0,12.0,57,0.00,CLR,,0.00,WeatherDisplay:10.37,2013-01-10 13:30:00,
2013-01-10 08:35:00,38.4,24.5,30.27,WNW,300,5.0,8.0,57,0.00,CLR,,0.00,WeatherDisplay:10.37,2013-01-10 13:35:00,
2013-01-10 08:40:00,38.6,24.2,30.27,WNW,289,6.0,12.0,56,0.00,CLR,,0.00,WeatherDisplay:10.37,2013-01-10 13:40:00,
2013-01-10 08:45:00,38.8,24.0,30.28,WNW,284,6.0,12.0,55,0.00,CLR,,0.00,WeatherDisplay:10.37,2013-01-10 13:45:00,
2013-01-10 08:50:00,39.0,24.2,30.27,NW,318,3.0,12.0,55,0.00,CLR,,0.00,WeatherDisplay:10.37,2013-01-10 13:50:00,
2013-01-10 08:55:00,39.2,24.4,30.28,NW,316,3.0,12.0,55,0.00,CLR,,0.00,WeatherDisplay:10.37,2013-01-10 13:55:00,
2013-01-10 09:00:00,39.4,24.6,30.28,WNW,294,9.0,16.0,55,0.00,CLR,,0.00,WeatherDisplay:10.37,2013-01-10 14:00:00,
2013-01-10 09:05:00,39.6,24.3,30.28,WNW,296,6.0,13.0,54,0.00,CLR,,0.00,WeatherDisplay:10.37,2013-01-10 14:05:00,
2013-01-10 09:10:00,39.8,24.5,30.28,NW,304,7.0,15.0,54,0.00,CLR,,0.00,WeatherDisplay:10.37,2013-01-10 14:10:00,
2013-01-10 09:15:00,40.0,24.7,30.28,NW,307,6.0,13.0,54,0.00,CLR,,0.00,WeatherDisplay:10.37,2013-01-10 14:15:00,
2013-01-10 09:20:00,40.2,24.9,30.30,WNW,299,5.0,13.0,54,0.00,CLR,,0.00,WeatherDisplay:10.37,2013-01-10 14:20:00,
2013-01-10 09:25:00,40.1,24.8,30.30,NW,308,6.0,10.0,54,0.00,CLR,,0.00,WeatherDisplay:10.37,2013-01-10 14:25:00,
2013-01-10 09:30:00,40.1,24.8,30.30,NW,319,5.0,18.0,54,0.00,CLR,,0.00,WeatherDisplay:10.37,2013-01-10 14:30:00,
2013-01-10 09:35:00,40.2,24.9,30.30,NW,320,5.0,8.0,54,0.00,CLR,,0.00,WeatherDisplay:10.37,2013-01-10 14:35:00,
2013-01-10 09:40:00,40.3,25.0,30.30,NW,307,7.0,13.0,54,0.00,CLR,,0.00,WeatherDisplay:10.37,2013-01-10 14:40:00,
2013-01-10 09:45:00,40.4,25.0,30.31,NW,315,5.0,10.0,54,0.00,CLR,,0.00,WeatherDisplay:10.37,2013-01-10 14:45:00,
2013-01-10 09:50:00,40.4,25.5,30.31,NW,316,8.0,17.0,55,0.00,CLR,,0.00,WeatherDisplay:10.37,2013-01-10 14:50:00,
2013-01-10 09:55:00,40.4,25.5,30.31,NNW,331,3.0,12.0,55,0.00,CLR,,0.00,WeatherDisplay:10.37,2013-01-10 14:55:00,
2013-01-10 10:00:00,40.5,25.6,30.32,NW,318,5.0,10.0,55,0.00,CLR,,0.00,WeatherDisplay:10.37,2013-01-10 15:00:00,
2013-01-10 10:05:00,40.5,25.2,30.31,NW,314,5.0,12.0,54,0.00,CLR,,0.00,WeatherDisplay:10.37,2013-01-10 15:05:00,
2013-01-10 10:10:00,40.6,25.7,30.31,NNW,328,5.0,10.0,55,0.00,CLR,,0.00,WeatherDisplay:10.37,2013-01-10 15:10:00,
2013-01-10 10:15:00,40.7,25.3,30.31,NW,311,5.0,12.0,54,0.00,CLR,,0.00,WeatherDisplay:10.37,2013-01-10 15:15:00,
2013-01-10 10:20:00,40.8,25.8,30.31,NW,321,6.0,16.0,55,0.00,FEW,,0.00,WeatherDisplay:10.37,2013-01-10 15:20:00,
2013-01-10 10:25:00,40.8,25.4,30.32,NW,319,5.0,12.0,54,0.00,FEW,,0.00,WeatherDisplay:10.37,2013-01-10 15:25:00,
2013-01-10 10:30:00,40.9,25.5,30.32,WNW,294,2.0,10.0,54,0.00,FEW,,0.00,WeatherDisplay:10.37,2013-01-10 15:30:00,
2013-01-10 10:35:00,41.0,25.6,30.32,NW,306,5.0,12.0,54,0.00,FEW,,0.00,WeatherDisplay:10.37,2013-01-10 15:35:00,
2013-01-10 10:40:00,41.1,25.3,30.31,NW,315,5.0,10.0,53,0.00,FEW,,0.00,WeatherDisplay:10.37,2013-01-10 15:40:00,
2013-01-10 10:45:00,41.2,25.4,30.31,NW,309,7.0,14.0,53,0.00,FEW,,0.00,WeatherDisplay:10.37,2013-01-10 15:45:00,
2013-01-10 10:50:00,41.3,25.4,30.30,WNW,301,3.0,8.0,53,0.00,FEW,,0.00,WeatherDisplay:10.37,2013-01-10 15:50:00,
2013-01-10 10:55:00,41.4,25.5,30.30,WNW,290,7.0,13.0,53,0.00,FEW,,0.00,WeatherDisplay:10.37,2013-01-10 15:55:00,
2013-01-10 11:00:00,41.4,25.5,30.29,NW,319,6.0,17.0,53,0.00,FEW,,0.00,WeatherDisplay:10.37,2013-01-10 16:00:00,
2013-01-10 11:05:00,41.4,26.0,30.30,NNW,342,6.0,13.0,54,0.00,FEW,,0.00,WeatherDisplay:10.37,2013-01-10 16:05:00,
2013-01-10 11:10:00,41.5,26.1,30.30,NW,315,5.0,20.0,54,0.00,FEW,,0.00,WeatherDisplay:10.37,2013-01-10 16:10:00,
2013-01-10 11:15:00,41.6,26.2,30.30,NW,315,5.0,13.0,54,0.00,FEW,,0.00,WeatherDisplay:10.37,2013-01-10 16:15:00,
2013-01-10 11:20:00,41.7,25.8,30.30,NW,321,3.0,13.0,53,0.00,FEW,,0.00,WeatherDisplay:10.37,2013-01-10 16:20:00,
2013-01-10 11:25:00,41.7,25.8,30.30,NW,309,7.0,13.0,53,0.00,FEW,,0.00,WeatherDisplay:10.37,2013-01-10 16:25:00,
2013-01-10 11:30:00,41.8,25.9,30.30,NW,304,6.0,13.0,53,0.00,FEW,,0.00,WeatherDisplay:10.37,2013-01-10 16:30:00,
2013-01-10 11:35:00,41.8,26.4,30.30,WNW,301,2.0,8.0,54,0.00,FEW,,0.00,WeatherDisplay:10.37,2013-01-10 16:35:00,
2013-01-10 11:40:00,41.9,26.0,30.30,NW,325,6.0,9.0,53,0.00,FEW,,0.00,WeatherDisplay:10.37,2013-01-10 16:40:00,
2013-01-10 11:45:00,42.0,26.1,30.30,NNW,344,1.0,10.0,53,0.00,FEW,,0.00,WeatherDisplay:10.37,2013-01-10 16:45:00,
2013-01-10 11:50:00,42.1,26.2,30.30,NW,325,7.0,15.0,53,0.00,FEW,,0.00,WeatherDisplay:10.37,2013-01-10 16:50:00,
2013-01-10 11:55:00,42.2,25.8,30.30,NNW,331,3.0,9.0,52,0.00,FEW,,0.00,WeatherDisplay:10.37,2013-01-10 16:55:00,
2013-01-10 12:00:00,42.2,26.3,30.30,NNW,337,2.0,8.0,53,0.00,FEW,,0.00,WeatherDisplay:10.37,2013-01-10 17:00:00,
2013-01-10 12:05:00,42.4,25.5,30.30,NW,324,5.0,12.0,51,0.00,FEW,,0.00,WeatherDisplay:10.37,2013-01-10 17:05:00,
2013-01-10 12:10:00,42.4,26.5,30.30,NNW,328,3.0,13.0,53,0.00,FEW,,0.00,WeatherDisplay:10.37,2013-01-10 17:10:00,
2013-01-10 12:15:00,42.5,26.1,30.30,NNW,332,6.0,8.0,52,0.00,FEW,,0.00,WeatherDisplay:10.37,2013-01-10 17:15:00,
2013-01-10 12:20:00,42.7,26.3,30.30,NNW,348,5.0,8.0,52,0.00,FEW,,0.00,WeatherDisplay:10.37,2013-01-10 17:20:00,
2013-01-10 12:25:00,42.8,25.9,30.30,NNW,333,7.0,14.0,51,0.00,FEW,,0.00,WeatherDisplay:10.37,2013-01-10 17:25:00,
2013-01-10 12:30:00,42.8,25.9,30.30,NNW,327,2.0,13.0,51,0.00,FEW,,0.00,WeatherDisplay:10.37,2013-01-10 17:30:00,
2013-01-10 12:35:00,42.9,26.0,30.30,NW,316,7.0,13.0,51,0.00,FEW,,0.00,WeatherDisplay:10.37,2013-01-10 17:35:00,
2013-01-10 12:40:00,42.9,26.0,30.30,NW,304,3.0,9.0,51,0.00,FEW,,0.00,WeatherDisplay:10.37,2013-01-10 17:40:00,
2013-01-10 12:45:00,43.0,26.1,30.30,NNW,328,6.0,12.0,51,0.00,FEW,,0.00,WeatherDisplay:10.37,2013-01-10 17:45:00,
2013-01-10 12:50:00,43.1,26.2,30.30,NW,319,5.0,12.0,51,0.00,FEW,,0.00,WeatherDisplay:10.37,2013-01-10 17:50:00,
2013-01-10 12:55:00,43.3,25.9,30.30,NW,305,7.0,10.0,50,0.00,FEW,,0.00,WeatherDisplay:10.37,2013-01-10 17:55:00,
2013-01-10 13:00:00,43.3,26.4,30.30,NW,312,2.0,9.0,51,0.00,FEW,,0.00,WeatherDisplay:10.37,2013-01-10 18:00:00,
2013-01-10 13:05:00,43.4,26.0,30.30,NW,322,2.0,12.0,50,0.00,FEW,,0.00,WeatherDisplay:10.37,2013-01-10 18:05:00,
2013-01-10 13:10:00,43.4,26.0,30.30,NW,326,5.0,13.0,50,0.00,FEW,,0.00,WeatherDisplay:10.37,2013-01-10 18:10:00,
2013-01-10 13:15:00,43.5,26.6,30.31,NW,323,3.0,14.0,51,0.00,FEW,,0.00,WeatherDisplay:10.37,2013-01-10 18:15:00,
2013-01-10 13:20:00,43.5,26.1,30.31,NW,313,5.0,10.0,50,0.00,FEW,,0.00,WeatherDisplay:10.37,2013-01-10 18:20:00,
2013-01-10 13:25:00,43.5,26.1,30.31,NW,313,2.0,12.0,50,0.00,FEW,,0.00,WeatherDisplay:10.37,2013-01-10 18:25:00,
2013-01-10 13:30:00,43.5,26.1,30.32,NNW,336,2.0,8.0,50,0.00,FEW,,0.00,WeatherDisplay:10.37,2013-01-10 18:30:00,
2013-01-10 13:35:00,43.6,26.6,30.32,NNW,335,2.0,9.0,51,0.00,FEW,,0.00,WeatherDisplay:10.37,2013-01-10 18:35:00,
2013-01-10 13:40:00,43.5,26.6,30.32,NNW,327,1.0,8.0,51,0.00,FEW,,0.00,WeatherDisplay:10.37,2013-01-10 18:40:00,
2013-01-10 13:45:00,43.6,26.2,30.34,NW,323,7.0,15.0,50,0.00,FEW,,0.00,WeatherDisplay:10.37,2013-01-10 18:45:00,
2013-01-10 13:50:00,43.6,26.2,30.34,NW,313,2.0,9.0,50,0.00,FEW,,0.00,WeatherDisplay:10.37,2013-01-10 18:50:00,
2013-01-10 13:55:00,43.6,25.2,30.34,WNW,303,5.0,13.0,48,0.00,FEW,,0.00,WeatherDisplay:10.37,2013-01-10 18:55:00,
2013-01-10 14:00:00,43.6,26.2,30.34,WNW,296,2.0,12.0,50,0.00,FEW,,0.00,WeatherDisplay:10.37,2013-01-10 19:00:00,
2013-01-10 14:05:00,43.4,26.0,30.34,NW,310,1.0,5.0,50,0.00,FEW,,0.00,WeatherDisplay:10.37,2013-01-10 19:05:00,
2013-01-10 14:10:00,43.4,26.0,30.35,NW,320,1.0,4.0,50,0.00,FEW,,0.00,WeatherDisplay:10.37,2013-01-10 19:10:00,
2013-01-10 14:15:00,43.3,25.9,30.35,WNW,295,3.0,8.0,50,0.00,FEW,,0.00,WeatherDisplay:10.37,2013-01-10 19:15:00,
2013-01-10 14:20:00,43.1,26.2,30.36,NW,312,2.0,10.0,51,0.00,FEW,,0.00,WeatherDisplay:10.37,2013-01-10 19:20:00,
2013-01-10 14:25:00,42.9,26.0,30.36,North,349,3.0,8.0,51,0.00,FEW,,0.00,WeatherDisplay:10.37,2013-01-10 19:25:00,
2013-01-10 14:30:00,42.8,25.9,30.36,North,349,1.0,9.0,51,0.00,FEW,,0.00,WeatherDisplay:10.37,2013-01-10 19:30:00,
2013-01-10 14:35:00,42.7,25.8,30.36,NNW,333,1.0,9.0,51,0.00,FEW,,0.00,WeatherDisplay:10.37,2013-01-10 19:35:00,
2013-01-10 14:45:00,42.6,26.2,30.36,NNW,331,2.0,5.0,52,0.00,FEW,,0.00,WeatherDisplay:10.37,2013-01-10 19:45:00,
2013-01-10 14:55:00,42.8,25.9,30.36,WNW,296,3.0,12.0,51,0.00,FEW,,0.00,WeatherDisplay:10.37,2013-01-10 19:55:00,
2013-01-10 15:00:00,42.7,26.3,30.36,WNW,302,2.0,8.0,52,0.00,FEW,,0.00,WeatherDisplay:10.37,2013-01-10 20:00:00,
2013-01-10 15:05:00,42.5,26.1,30.37,WNW,300,2.0,8.0,52,0.00,CLR,,0.00,WeatherDisplay:10.37,2013-01-10 20:05:00,
2013-01-10 15:10:00,42.3,25.9,30.37,NW,318,0.0,3.0,52,0.00,CLR,,0.00,WeatherDisplay:10.37,2013-01-10 20:10:00,
2013-01-10 15:15:00,42.2,25.3,30.37,NW,309,0.0,0.0,51,0.00,CLR,,0.00,WeatherDisplay:10.37,2013-01-10 20:15:00,
2013-01-10 15:20:00,42.2,26.3,30.38,WNW,303,1.0,2.0,53,0.00,CLR,,0.00,WeatherDisplay:10.37,2013-01-10 20:20:00,
2013-01-10 15:25:00,42.1,25.7,30.38,NW,304,0.0,3.0,52,0.00,CLR,,0.00,WeatherDisplay:10.37,2013-01-10 20:25:00,
2013-01-10 15:30:00,42.0,26.5,30.38,WNW,293,1.0,5.0,54,0.00,CLR,,0.00,WeatherDisplay:10.37,2013-01-10 20:30:00,
2013-01-10 15:35:00,41.9,26.0,30.38,WNW,286,2.0,7.0,53,0.00,CLR,,0.00,WeatherDisplay:10.37,2013-01-10 20:35:00,
2013-01-10 15:40:00,41.8,26.4,30.39,WNW,286,1.0,4.0,54,0.00,CLR,,0.00,WeatherDisplay:10.37,2013-01-10 20:40:00,
2013-01-10 15:45:00,41.6,26.2,30.39,WNW,302,1.0,4.0,54,0.00,CLR,,0.00,WeatherDisplay:10.37,2013-01-10 20:45:00,
2013-01-10 15:50:00,41.4,26.0,30.39,NW,321,1.0,5.0,54,0.00,CLR,,0.00,WeatherDisplay:10.37,2013-01-10 20:50:00,
2013-01-10 15:55:00,41.2,25.3,30.39,NW,323,2.0,6.0,53,0.00,CLR,,0.00,WeatherDisplay:10.37,2013-01-10 20:55:00,
2013-01-10 16:00:00,41.0,25.6,30.39,NNW,331,2.0,7.0,54,0.00,CLR,,0.00,WeatherDisplay:10.37,2013-01-10 21:00:00,
2013-01-10 16:05:00,40.9,25.5,30.39,NW,323,2.0,5.0,54,0.00,CLR,,0.00,WeatherDisplay:10.37,2013-01-10 21:05:00,
2013-01-10 16:10:00,40.7,25.3,30.39,WNW,302,2.0,9.0,54,0.00,CLR,,0.00,WeatherDisplay:10.37,2013-01-10 21:10:00,
2013-01-10 16:15:00,40.6,25.2,30.39,WNW,300,3.0,8.0,54,0.00,CLR,,0.00,WeatherDisplay:10.37,2013-01-10 21:15:00,
2013-01-10 16:20:00,40.5,25.6,30.40,NNW,341,2.0,9.0,55,0.00,CLR,,0.00,WeatherDisplay:10.37,2013-01-10 21:20:00,
2013-01-10 16:25:00,40.3,25.8,30.41,North,10,0.0,3.0,56,0.00,CLR,,0.00,WeatherDisplay:10.37,2013-01-10 21:25:00,
2013-01-10 16:30:00,39.9,25.9,30.42,SSW,195,1.0,3.0,57,0.00,CLR,,0.00,WeatherDisplay:10.37,2013-01-10 21:30:00,
2013-01-10 16:35:00,39.3,25.7,30.42,WNW,299,1.0,4.0,58,0.00,CLR,,0.00,WeatherDisplay:10.37,2013-01-10 21:35:00,
2013-01-10 16:40:00,39.1,25.1,30.43,NW,315,3.0,9.0,57,0.00,CLR,,0.00,WeatherDisplay:10.37,2013-01-10 21:40:00,
2013-01-10 16:45:00,39.2,26.1,30.43,WNW,293,3.0,8.0,59,0.00,CLR,,0.00,WeatherDisplay:10.37,2013-01-10 21:45:00,
2013-01-10 16:50:00,39.2,25.2,30.43,NW,322,2.0,7.0,57,0.00,CLR,,0.00,WeatherDisplay:10.37,2013-01-10 21:50:00,
2013-01-10 16:55:00,39.1,25.2,30.42,NNW,330,2.0,6.0,57,0.00,CLR,,0.00,WeatherDisplay:10.37,2013-01-10 21:55:00,
2013-01-10 17:00:00,39.1,25.6,30.42,NNW,330,5.0,11.0,58,0.00,CLR,,0.00,WeatherDisplay:10.37,2013-01-10 22:00:00,
2013-01-10 17:05:00,39.1,25.5,30.42,NNW,335,0.0,4.0,58,0.00,CLR,,0.00,WeatherDisplay:10.37,2013-01-10 22:05:00,
2013-01-10 17:10:00,38.9,25.8,30.43,NW,326,1.0,6.0,59,0.00,CLR,,0.00,WeatherDisplay:10.37,2013-01-10 22:10:00,
2013-01-10 17:20:00,38.8,25.7,30.44,WNW,295,1.0,4.0,59,0.00,CLR,,0.00,WeatherDisplay:10.37,2013-01-10 22:20:00,
2013-01-10 17:25:00,38.7,25.2,30.44,NW,319,5.0,8.0,58,0.00,CLR,,0.00,WeatherDisplay:10.37,2013-01-10 22:25:00,
2013-01-10 17:30:00,38.7,25.6,30.44,NNW,337,1.0,5.0,59,0.00,CLR,,0.00,WeatherDisplay:10.37,2013-01-10 22:30:00,
2013-01-10 17:35:00,38.5,25.8,30.44,NNW,327,1.0,8.0,60,0.00,CLR,,0.00,WeatherDisplay:10.37,2013-01-10 22:35:00,
2013-01-10 17:40:00,38.4,25.7,30.44,NW,326,2.0,4.0,60,0.00,CLR,,0.00,WeatherDisplay:10.37,2013-01-10 22:40:00,
2013-01-10 17:50:00,38.1,25.8,30.43,NW,306,1.0,3.0,61,0.00,CLR,,0.00,WeatherDisplay:10.37,2013-01-10 22:50:00,
2013-01-10 18:00:00,37.9,25.6,30.44,WNW,293,0.0,3.0,61,0.00,CLR,,0.00,WeatherDisplay:10.37,2013-01-10 23:00:00,
2013-01-10 18:05:00,37.7,25.5,30.45,NW,305,0.0,2.0,61,0.00,CLR,,0.00,WeatherDisplay:10.37,2013-01-10 23:05:00,
2013-01-10 18:10:00,37.7,25.5,30.45,NNW,340,1.0,4.0,61,0.00,CLR,,0.00,WeatherDisplay:10.37,2013-01-10 23:10:00,
2013-01-10 18:15:00,37.5,26.0,30.44,NW,320,2.0,4.0,63,0.00,CLR,,0.00,WeatherDisplay:10.37,2013-01-10 23:15:00,
2013-01-10 18:25:00,37.1,25.7,30.44,WNW,297,0.0,1.0,63,0.00,CLR,,0.00,WeatherDisplay:10.37,2013-01-10 23:25:00,
2013-01-10 18:30:00,37.0,25.6,30.45,NW,313,1.0,5.0,63,0.00,CLR,,0.00,WeatherDisplay:10.37,2013-01-10 23:30:00,
2013-01-10 18:35:00,36.9,25.8,30.45,NNW,331,1.0,6.0,64,0.00,CLR,,0.00,WeatherDisplay:10.37,2013-01-10 23:35:00,
2013-01-10 18:40:00,36.7,25.3,30.45,NNW,333,0.0,5.0,63,0.00,CLR,,0.00,WeatherDisplay:10.37,2013-01-10 23:40:00,
2013-01-10 18:45:00,36.6,25.6,30.45,NNW,341,0.0,3.0,64,0.00,CLR,,0.00,WeatherDisplay:10.37,2013-01-10 23:45:00,
2013-01-10 18:50:00,36.4,25.0,30.44,NNW,342,0.0,2.0,63,0.00,CLR,,0.00,WeatherDisplay:10.37,2013-01-10 23:50:00,
2013-01-10 18:55:00,36.2,24.9,30.44,NNW,333,1.0,4.0,63,0.00,CLR,,0.00,WeatherDisplay:10.37,2013-01-10 23:55:00,
2013-01-10 19:00:00,36.2,25.1,30.44,NNW,327,0.0,1.0,64,0.00,CLR,,0.00,WeatherDisplay:10.37,2013-01-11 00:00:00,
2013-01-10 19:05:00,36.0,25.0,30.45,NW,321,0.0,1.0,64,0.00,CLR,,0.00,WeatherDisplay:10.37,2013-01-11 00:05:00,
2013-01-10 19:10:00,35.9,25.3,30.45,WNW,303,0.0,1.0,65,0.00,CLR,,0.00,WeatherDisplay:10.37,2013-01-11 00:10:00,
2013-01-10 19:15:00,35.7,25.5,30.46,NW,317,0.0,0.0,66,0.00,CLR,,0.00,WeatherDisplay:10.37,2013-01-11 00:15:00,
2013-01-10 19:20:00,35.6,25.0,30.46,NW,311,1.0,3.0,65,0.00,CLR,,0.00,WeatherDisplay:10.37,2013-01-11 00:20:00,
2013-01-10 19:25:00,35.4,24.8,30.46,NW,315,0.0,2.0,65,0.00,CLR,,0.00,WeatherDisplay:10.37,2013-01-11 00:25:00,
2013-01-10 19:30:00,35.3,25.1,30.46,NW,324,0.0,2.0,66,0.00,CLR,,0.00,WeatherDisplay:10.37,2013-01-11 00:30:00,
2013-01-10 19:35:00,35.2,24.6,30.46,NW,307,1.0,4.0,65,0.00,CLR,,0.00,WeatherDisplay:10.37,2013-01-11 00:35:00,
2013-01-10 19:40:00,35.1,24.9,30.45,WNW,292,0.0,4.0,66,0.00,CLR,,0.00,WeatherDisplay:10.37,2013-01-11 00:40:00,
2013-01-10 19:45:00,35.0,24.8,30.46,NW,311,1.0,5.0,66,0.00,CLR,,0.00,WeatherDisplay:10.37,2013-01-11 00:45:00,
2013-01-10 19:55:00,35.0,25.1,30.47,NNW,328,1.0,5.0,67,0.00,CLR,,0.00,WeatherDisplay:10.37,2013-01-11 00:55:00,
2013-01-10 20:00:00,35.0,24.8,30.47,NNW,337,1.0,5.0,66,0.00,CLR,,0.00,WeatherDisplay:10.37,2013-01-11 01:00:00,
2013-01-10 20:05:00,35.1,24.9,30.47,NW,317,3.0,6.0,66,0.00,CLR,,0.00,WeatherDisplay:10.37,2013-01-11 01:05:00,
2013-01-10 20:10:00,35.2,25.0,30.47,NNW,337,0.0,5.0,66,0.00,CLR,,0.00,WeatherDisplay:10.37,2013-01-11 01:10:00,
2013-01-10 20:15:00,35.1,24.9,30.47,NNW,334,1.0,4.0,66,0.00,CLR,,0.00,WeatherDisplay:10.37,2013-01-11 01:15:00,
2013-01-10 20:20:00,35.1,25.2,30.47,WNW,301,1.0,3.0,67,0.00,CLR,,0.00,WeatherDisplay:10.37,2013-01-11 01:20:00,
2013-01-10 20:25:00,34.8,25.3,30.47,West,279,0.0,1.0,68,0.00,CLR,,0.00,WeatherDisplay:10.37,2013-01-11 01:25:00,
2013-01-10 20:30:00,34.4,25.0,30.48,WNW,292,0.0,4.0,68,0.00,CLR,,0.00,WeatherDisplay:10.37,2013-01-11 01:30:00,
2013-01-10 20:35:00,34.2,25.1,30.48,ENE,73,0.0,2.0,69,0.00,CLR,,0.00,WeatherDisplay:10.37,2013-01-11 01:35:00,
2013-01-10 20:40:00,34.0,24.9,30.47,NE,44,0.0,0.0,69,0.00,CLR,,0.00,WeatherDisplay:10.37,2013-01-11 01:40:00,
2013-01-10 20:45:00,33.8,24.4,30.47,NNW,331,0.0,0.0,68,0.00,CLR,,0.00,WeatherDisplay:10.37,2013-01-11 01:45:00,
2013-01-10 20:50:00,33.5,24.8,30.48,NW,317,0.0,0.0,70,0.00,CLR,,0.00,WeatherDisplay:10.37,2013-01-11 01:50:00,
2013-01-10 20:55:00,33.1,25.1,30.48,East,87,0.0,0.0,72,0.00,CLR,,0.00,WeatherDisplay:10.37,2013-01-11 01:55:00,
2013-01-10 21:00:00,32.7,25.0,30.49,ESE,122,0.0,0.0,73,0.00,CLR,,0.00,WeatherDisplay:10.37,2013-01-11 02:00:00,
2013-01-10 21:05:00,32.3,25.0,30.49,South,174,0.0,0.0,74,0.00,CLR,,0.00,WeatherDisplay:10.37,2013-01-11 02:05:00,
2013-01-10 21:10:00,32.0,24.6,30.49,SSW,205,0.0,0.0,74,0.00,CLR,,0.00,WeatherDisplay:10.37,2013-01-11 02:10:00,
2013-01-10 21:15:00,31.7,24.7,30.50,SSW,207,0.0,0.0,75,0.00,CLR,,0.00,WeatherDisplay:10.37,2013-01-11 02:15:00,
2013-01-10 21:20:00,31.5,24.2,30.50,SSW,210,0.0,0.0,74,0.00,CLR,,0.00,WeatherDisplay:10.37,2013-01-11 02:20:00,
2013-01-10 21:25:00,31.2,24.9,30.51,SSW,212,0.0,0.0,77,0.00,CLR,,0.00,WeatherDisplay:10.37,2013-01-11 02:25:00,
2013-01-10 21:30:00,30.9,24.9,30.51,SSW,212,0.0,0.0,78,0.00,CLR,,0.00,WeatherDisplay:10.37,2013-01-11 02:30:00,
2013-01-10 21:35:00,30.6,24.5,30.51,SW,217,0.0,0.0,78,0.00,CLR,,0.00,WeatherDisplay:10.37,2013-01-11 02:35:00,
2013-01-10 21:45:00,30.1,24.3,30.51,SW,230,0.0,0.0,79,0.00,CLR,,0.00,WeatherDisplay:10.37,2013-01-11 02:45:00,
2013-01-10 21:50:00,29.8,24.1,30.51,WSW,254,0.0,1.0,79,0.00,CLR,,0.00,WeatherDisplay:10.37,2013-01-11 02:50:00,
2013-01-10 21:55:00,29.6,24.2,30.51,WNW,283,0.0,0.0,80,0.00,CLR,,0.00,WeatherDisplay:10.37,2013-01-11 02:55:00,
2013-01-10 22:00:00,29.3,23.9,30.51,WNW,285,0.0,0.0,80,0.00,CLR,,0.00,WeatherDisplay:10.37,2013-01-11 03:00:00,
2013-01-10 22:10:00,28.9,23.8,30.52,WNW,285,0.0,0.0,81,0.00,CLR,,0.00,WeatherDisplay:10.37,2013-01-11 03:10:00,
2013-01-10 22:15:00,28.7,23.9,30.52,WNW,284,0.0,0.0,82,0.00,CLR,,0.00,WeatherDisplay:10.37,2013-01-11 03:15:00,
2013-01-10 22:20:00,28.5,24.0,30.52,WNW,284,0.0,0.0,83,0.00,CLR,,0.00,WeatherDisplay:10.37,2013-01-11 03:20:00,
2013-01-10 22:30:00,28.4,23.9,30.52,WNW,284,0.0,0.0,83,0.00,CLR,,0.00,WeatherDisplay:10.37,2013-01-11 03:30:00,
2013-01-10 22:35:00,28.4,24.2,30.52,WNW,284,0.0,0.0,84,0.00,CLR,,0.00,WeatherDisplay:10.37,2013-01-11 03:35:00,
2013-01-10 22:40:00,28.4,24.5,30.52,WNW,284,0.0,0.0,85,0.00,CLR,,0.00,WeatherDisplay:10.37,2013-01-11 03:40:00,
2013-01-10 22:45:00,28.3,24.1,30.52,WNW,284,0.0,0.0,84,0.00,CLR,,0.00,WeatherDisplay:10.37,2013-01-11 03:45:00,
2013-01-10 22:50:00,28.3,24.3,30.52,WNW,284,0.0,0.0,85,0.00,CLR,,0.00,WeatherDisplay:10.37,2013-01-11 03:50:00,
2013-01-10 22:55:00,28.1,24.2,30.52,WNW,284,0.0,0.0,85,0.00,CLR,,0.00,WeatherDisplay:10.37,2013-01-11 03:55:00,
2013-01-10 23:00:00,28.0,24.1,30.52,WNW,284,0.0,0.0,85,0.00,CLR,,0.00,WeatherDisplay:10.37,2013-01-11 04:00:00,
2013-01-10 23:05:00,27.9,24.0,30.53,WNW,284,0.0,0.0,85,0.00,CLR,,0.00,WeatherDisplay:10.37,2013-01-11 04:05:00,
2013-01-10 23:10:00,27.8,24.5,30.52,WNW,284,0.0,0.0,87,0.00,CLR,,0.00,WeatherDisplay:10.37,2013-01-11 04:10:00,
2013-01-10 23:15:00,27.8,24.4,30.52,WNW,284,0.0,0.0,87,0.00,CLR,,0.00,WeatherDisplay:10.37,2013-01-11 04:15:00,
2013-01-10 23:20:00,27.7,24.3,30.52,WNW,284,0.0,0.0,87,0.00,CLR,,0.00,WeatherDisplay:10.37,2013-01-11 04:20:00,
2013-01-10 23:25:00,27.5,23.9,30.51,WNW,284,0.0,0.0,86,0.00,CLR,,0.00,WeatherDisplay:10.37,2013-01-11 04:25:00,
2013-01-10 23:30:00,27.4,23.8,30.51,WNW,284,0.0,0.0,86,0.00,CLR,,0.00,WeatherDisplay:10.37,2013-01-11 04:30:00,
2013-01-10 23:35:00,27.3,23.7,30.51,WNW,284,0.0,0.0,86,0.00,CLR,,0.00,WeatherDisplay:10.37,2013-01-11 04:35:00,
2013-01-10 23:40:00,27.2,23.5,30.51,WNW,284,0.0,0.0,86,0.00,CLR,,0.00,WeatherDisplay:10.37,2013-01-11 04:40:00,
2013-01-10 23:45:00,27.0,23.6,30.51,WNW,284,0.0,0.0,87,0.00,CLR,,0.00,WeatherDisplay:10.37,2013-01-11 04:45:00,
2013-01-10 23:50:00,26.9,23.3,30.51,WNW,284,0.0,0.0,86,0.00,CLR,,0.00,WeatherDisplay:10.37,2013-01-11 04:50:00,